createdAt,value
2023-04-19T00:00:42.962Z,1.66
2023-04-19T00:01:42.913Z,1.64
2023-04-19T00:02:43.188Z,1.51
2023-04-19T00:03:43.007Z,1.54
2023-04-19T00:04:42.926Z,1.57
2023-04-19T00:05:42.837Z,1.22
2023-04-19T00:06:42.804Z,1.54
2023-04-19T00:07:42.803Z,1.37
2023-04-19T00:08:42.815Z,1.84
2023-04-19T00:09:42.755Z,1.33
2023-04-19T00:10:42.776Z,1.51
2023-04-19T00:11:42.765Z,1.58
2023-04-19T00:12:42.780Z,1.64
2023-04-19T00:13:42.753Z,1.59
2023-04-19T00:14:42.763Z,1.53
2023-04-19T00:15:42.955Z,1.53
2023-04-19T00:16:42.736Z,1.59
2023-04-19T00:17:42.723Z,1.63
2023-04-19T00:18:42.697Z,1.31
2023-04-19T00:19:42.702Z,1.80
2023-04-19T00:20:42.690Z,1.16
2023-04-19T00:21:42.700Z,1.37
2023-04-19T00:22:42.645Z,1.54
2023-04-19T00:23:42.634Z,1.57
2023-04-19T00:24:42.653Z,1.60
2023-04-19T00:25:42.706Z,1.62
2023-04-19T00:26:42.734Z,1.38
2023-04-19T00:27:42.743Z,1.33
2023-04-19T00:28:42.639Z,1.51
2023-04-19T00:29:42.651Z,1.32
2023-04-19T00:30:42.670Z,1.78
2023-04-19T00:31:42.670Z,1.52
2023-04-19T00:32:42.676Z,1.38
2023-04-19T00:33:42.667Z,1.83
2023-04-19T00:34:42.643Z,1.45
2023-04-19T00:35:42.595Z,1.39
2023-04-19T00:36:42.600Z,1.67
2023-04-19T00:37:42.644Z,1.80
2023-04-19T00:38:42.607Z,1.52
2023-04-19T00:39:42.556Z,1.64
2023-04-19T00:40:42.553Z,1.74
2023-04-19T00:41:42.572Z,1.43
2023-04-19T00:42:42.539Z,1.16
2023-04-19T00:43:42.535Z,1.20
2023-04-19T00:44:42.760Z,1.26
2023-04-19T00:45:42.770Z,1.57
2023-04-19T00:46:42.980Z,1.67
2023-04-19T00:47:43.026Z,1.66
2023-04-19T00:48:42.991Z,1.66
2023-04-19T00:49:42.986Z,1.45
2023-04-19T00:50:42.999Z,1.53
2023-04-19T00:51:43.006Z,1.58
2023-04-19T00:52:43.012Z,1.50
2023-04-19T00:53:42.978Z,1.47
2023-04-19T00:54:42.965Z,1.38
2023-04-19T00:55:42.974Z,1.39
2023-04-19T00:56:43.075Z,1.33
2023-04-19T00:57:42.964Z,1.16
2023-04-19T00:58:42.984Z,1.62
2023-04-19T00:59:42.980Z,1.42
2023-04-19T01:00:42.973Z,1.70
2023-04-19T01:01:43.060Z,1.56
2023-04-19T01:02:43.086Z,1.48
2023-04-19T01:03:43.122Z,1.22
2023-04-19T01:04:43.002Z,1.56
2023-04-19T01:05:42.945Z,1.66
2023-04-19T01:06:42.933Z,1.25
2023-04-19T01:07:42.932Z,1.51
2023-04-19T01:08:42.920Z,1.34
2023-04-19T01:09:42.916Z,1.40
2023-04-19T01:10:42.940Z,1.30
2023-04-19T01:11:43.552Z,1.68
2023-04-19T01:12:42.872Z,1.74
2023-04-19T01:13:42.870Z,1.74
2023-04-19T01:14:42.900Z,1.35
2023-04-19T01:15:42.990Z,1.47
2023-04-19T01:16:42.869Z,1.37
2023-04-19T01:17:42.998Z,1.90
2023-04-19T01:18:42.819Z,1.86
2023-04-19T01:19:42.994Z,1.21
2023-04-19T01:20:43.045Z,1.32
2023-04-19T01:21:43.136Z,1.66
2023-04-19T01:22:43.218Z,1.40
2023-04-19T01:23:43.470Z,1.53
2023-04-19T01:24:43.571Z,1.36
2023-04-19T01:25:43.676Z,1.75
2023-04-19T01:26:43.857Z,1.60
2023-04-19T01:27:43.906Z,1.52
2023-04-19T01:28:44.006Z,1.55
2023-04-19T01:29:44.088Z,1.37
2023-04-19T01:30:44.247Z,1.29
2023-04-19T01:31:44.401Z,1.55
2023-04-19T01:32:44.481Z,1.81
2023-04-19T01:33:44.538Z,1.45
2023-04-19T01:34:44.728Z,1.24
2023-04-19T01:35:44.831Z,1.43
2023-04-19T01:36:44.951Z,1.59
2023-04-19T01:37:44.991Z,1.59
2023-04-19T01:38:45.161Z,1.33
2023-04-19T01:39:45.282Z,1.74
2023-04-19T01:40:45.429Z,1.50
2023-04-19T01:41:45.552Z,1.35
2023-04-19T01:42:45.654Z,1.46
2023-04-19T01:43:45.820Z,1.50
2023-04-19T01:44:45.958Z,1.26
2023-04-19T01:45:46.203Z,1.95
2023-04-19T01:46:46.299Z,1.62
2023-04-19T01:47:46.451Z,1.27
2023-04-19T01:48:46.676Z,1.41
2023-04-19T01:49:46.917Z,1.51
2023-04-19T01:50:46.923Z,1.61
2023-04-19T01:51:47.028Z,1.18
2023-04-19T01:52:47.227Z,1.19
2023-04-19T01:53:47.302Z,1.49
2023-04-19T01:54:47.460Z,1.46
2023-04-19T01:55:47.635Z,1.44
2023-04-19T01:56:47.736Z,1.48
2023-04-19T01:57:47.888Z,1.28
2023-04-19T01:58:48.115Z,1.55
2023-04-19T01:59:48.158Z,1.50
2023-04-19T02:00:48.463Z,1.35
2023-04-19T02:01:48.631Z,1.33
2023-04-19T02:02:48.874Z,1.44
2023-04-19T02:03:48.984Z,1.41
2023-04-19T02:04:48.923Z,1.44
2023-04-19T02:05:49.142Z,1.90
2023-04-19T02:06:49.292Z,1.67
2023-04-19T02:07:49.564Z,1.25
2023-04-19T02:08:49.609Z,1.24
2023-04-19T02:09:49.828Z,1.24
2023-04-19T02:10:49.912Z,1.60
2023-04-19T02:11:50.134Z,1.32
2023-04-19T02:12:50.233Z,1.32
2023-04-19T02:13:50.413Z,1.20
2023-04-19T02:14:50.569Z,1.74
2023-04-19T02:15:50.573Z,1.15
2023-04-19T02:16:50.837Z,1.55
2023-04-19T02:17:50.871Z,1.58
2023-04-19T02:18:50.990Z,1.61
2023-04-19T02:19:51.069Z,1.39
2023-04-19T02:20:51.194Z,1.17
2023-04-19T02:21:51.308Z,1.43
2023-04-19T02:22:51.445Z,1.62
2023-04-19T02:23:51.534Z,1.38
2023-04-19T02:24:51.770Z,1.63
2023-04-19T02:25:51.847Z,1.33
2023-04-19T02:26:52.014Z,1.09
2023-04-19T02:27:52.182Z,1.06
2023-04-19T02:28:52.203Z,1.40
2023-04-19T02:29:52.373Z,1.40
2023-04-19T02:30:52.525Z,1.27
2023-04-19T02:31:52.686Z,1.66
2023-04-19T02:32:52.890Z,1.69
2023-04-19T02:33:53.013Z,1.34
2023-04-19T02:34:53.124Z,1.59
2023-04-19T02:35:53.225Z,1.26
2023-04-19T02:36:53.340Z,1.21
2023-04-19T02:37:53.394Z,1.46
2023-04-19T02:38:53.495Z,1.05
2023-04-19T02:39:53.504Z,1.33
2023-04-19T02:40:53.561Z,1.26
2023-04-19T02:41:53.811Z,1.52
2023-04-19T02:42:53.958Z,1.46
2023-04-19T02:43:54.121Z,1.56
2023-04-19T02:44:54.221Z,1.27
2023-04-19T02:45:54.404Z,1.64
2023-04-19T02:46:54.458Z,1.50
2023-04-19T02:47:54.715Z,1.37
2023-04-19T02:48:54.744Z,1.35
2023-04-19T02:49:54.872Z,1.44
2023-04-19T02:50:54.827Z,1.41
2023-04-19T02:51:54.894Z,1.32
2023-04-19T02:52:55.180Z,0.99
2023-04-19T02:53:55.236Z,1.55
2023-04-19T02:54:55.350Z,1.18
2023-04-19T02:55:55.513Z,1.53
2023-04-19T02:56:55.619Z,1.02
2023-04-19T02:57:55.747Z,1.51
2023-04-19T02:58:55.856Z,1.45
2023-04-19T02:59:56.003Z,1.32
2023-04-19T03:00:56.181Z,1.39
2023-04-19T03:01:56.387Z,1.37
2023-04-19T03:02:56.525Z,1.32
2023-04-19T03:03:56.575Z,1.36
2023-04-19T03:04:56.634Z,1.20
2023-04-19T03:05:56.819Z,1.38
2023-04-19T03:06:56.916Z,1.25
2023-04-19T03:07:57.081Z,1.23
2023-04-19T03:08:57.197Z,1.21
2023-04-19T03:09:57.306Z,1.61
2023-04-19T03:10:57.387Z,1.33
2023-04-19T03:11:57.467Z,1.75
2023-04-19T03:12:57.584Z,1.14
2023-04-19T03:13:57.744Z,1.29
2023-04-19T03:14:57.821Z,1.46
2023-04-19T03:15:57.964Z,1.25
2023-04-19T03:16:58.035Z,1.18
2023-04-19T03:17:58.227Z,1.29
2023-04-19T03:18:58.338Z,1.09
2023-04-19T03:19:58.476Z,1.36
2023-04-19T03:20:59.200Z,1.41
2023-04-19T03:21:58.655Z,1.12
2023-04-19T03:22:58.669Z,1.30
2023-04-19T03:23:58.665Z,1.56
2023-04-19T03:24:58.670Z,1.69
2023-04-19T03:25:58.740Z,1.25
2023-04-19T03:26:58.718Z,1.18
2023-04-19T03:27:58.785Z,1.39
2023-04-19T03:28:58.800Z,1.60
2023-04-19T03:29:58.814Z,1.39
2023-04-19T03:30:58.883Z,1.29
2023-04-19T03:31:58.865Z,1.13
2023-04-19T03:32:58.906Z,1.37
2023-04-19T03:33:58.862Z,1.23
2023-04-19T03:34:58.883Z,1.41
2023-04-19T03:35:59.050Z,1.16
2023-04-19T03:36:58.953Z,1.53
2023-04-19T03:37:58.963Z,1.35
2023-04-19T03:38:58.969Z,1.37
2023-04-19T03:39:58.973Z,1.30
2023-04-19T03:40:59.031Z,1.23
2023-04-19T03:41:59.020Z,1.99
2023-04-19T03:42:59.044Z,1.31
2023-04-19T03:43:59.181Z,1.28
2023-04-19T03:44:59.095Z,1.66
2023-04-19T03:45:59.141Z,1.20
2023-04-19T03:46:59.123Z,1.12
2023-04-19T03:48:00.727Z,1.17
2023-04-19T03:48:59.134Z,1.22
2023-04-19T03:49:59.157Z,1.51
2023-04-19T03:50:59.156Z,1.20
2023-04-19T03:51:59.155Z,1.51
2023-04-19T03:52:59.184Z,1.33
2023-04-19T03:53:59.127Z,1.35
2023-04-19T03:54:59.122Z,1.62
2023-04-19T03:55:59.151Z,1.62
2023-04-19T03:56:59.091Z,1.03
2023-04-19T03:57:59.116Z,1.44
2023-04-19T03:58:59.107Z,1.64
2023-04-19T03:59:59.107Z,1.49
2023-04-19T04:00:59.050Z,1.37
2023-04-19T04:01:59.147Z,1.33
2023-04-19T04:02:59.217Z,1.01
2023-04-19T04:04:00.502Z,1.47
2023-04-19T04:04:59.361Z,1.23
2023-04-19T04:05:59.271Z,1.50
2023-04-19T04:06:59.267Z,1.43
2023-04-19T04:07:59.354Z,1.84
2023-04-19T04:08:59.270Z,1.32
2023-04-19T04:09:59.337Z,1.44
2023-04-19T04:10:59.320Z,1.53
2023-04-19T04:11:59.395Z,1.34
2023-04-19T04:12:59.345Z,1.10
2023-04-19T04:13:59.410Z,1.31
2023-04-19T04:14:59.438Z,1.57
2023-04-19T04:15:59.440Z,1.66
2023-04-19T04:16:59.417Z,1.69
2023-04-19T04:17:59.563Z,1.02
2023-04-19T04:18:59.484Z,1.41
2023-04-19T04:19:59.473Z,1.14
2023-04-19T04:20:59.494Z,1.32
2023-04-19T04:21:59.571Z,1.72
2023-04-19T04:22:59.569Z,1.32
2023-04-19T04:23:59.572Z,1.58
2023-04-19T04:24:59.585Z,1.17
2023-04-19T04:25:59.590Z,1.30
2023-04-19T04:26:59.634Z,1.48
2023-04-19T04:27:59.647Z,1.45
2023-04-19T04:28:59.734Z,1.53
2023-04-19T04:29:59.714Z,1.36
2023-04-19T04:30:59.715Z,1.24
2023-04-19T04:31:59.804Z,1.38
2023-04-19T04:32:59.860Z,1.60
2023-04-19T04:33:59.753Z,1.28
2023-04-19T04:34:59.813Z,1.28
2023-04-19T04:35:59.825Z,1.39
2023-04-19T04:36:59.886Z,1.33
2023-04-19T04:37:59.834Z,1.42
2023-04-19T04:38:59.912Z,1.13
2023-04-19T04:39:59.917Z,1.15
2023-04-19T04:40:59.912Z,1.41
2023-04-19T04:41:59.959Z,1.20
2023-04-19T04:42:59.969Z,1.48
2023-04-19T04:44:12.198Z,1.16
2023-04-19T04:45:00.982Z,1.46
2023-04-19T04:45:59.984Z,1.44
2023-04-19T04:46:59.959Z,1.28
2023-04-19T04:48:00.015Z,1.27
2023-04-19T04:49:00.007Z,1.20
2023-04-19T04:49:59.986Z,1.40
2023-04-19T04:50:59.929Z,1.26
2023-04-19T04:51:59.933Z,1.42
2023-04-19T04:52:59.932Z,1.33
2023-04-19T04:53:59.899Z,1.57
2023-04-19T04:54:59.912Z,1.15
2023-04-19T04:55:59.924Z,1.09
2023-04-19T04:56:59.894Z,1.35
2023-04-19T04:57:59.943Z,1.24
2023-04-19T04:58:59.954Z,1.12
2023-04-19T04:59:59.888Z,1.34
2023-04-19T05:00:59.917Z,1.52
2023-04-19T05:01:59.887Z,1.07
2023-04-19T05:03:00.014Z,1.30
2023-04-19T05:03:59.927Z,1.25
2023-04-19T05:04:59.876Z,1.40
2023-04-19T05:05:59.893Z,1.09
2023-04-19T05:06:59.942Z,1.43
2023-04-19T05:07:59.901Z,1.39
2023-04-19T05:08:59.932Z,1.16
2023-04-19T05:10:00.076Z,1.20
2023-04-19T05:10:59.961Z,1.47
2023-04-19T05:12:00.054Z,1.63
2023-04-19T05:13:00.067Z,1.34
2023-04-19T05:14:00.054Z,1.32
2023-04-19T05:15:00.047Z,1.25
2023-04-19T05:16:00.242Z,1.60
2023-04-19T05:17:00.122Z,1.43
2023-04-19T05:18:00.172Z,1.35
2023-04-19T05:19:00.159Z,1.40
2023-04-19T05:20:00.190Z,1.13
2023-04-19T05:21:00.183Z,1.05
2023-04-19T05:22:00.200Z,1.15
2023-04-19T05:23:00.320Z,1.21
2023-04-19T05:24:00.252Z,1.31
2023-04-19T05:25:00.255Z,1.22
2023-04-19T05:26:00.316Z,1.42
2023-04-19T05:27:00.448Z,1.55
2023-04-19T05:28:00.359Z,1.21
2023-04-19T05:29:00.601Z,1.42
2023-04-19T05:30:00.422Z,1.26
2023-04-19T05:31:00.483Z,1.40
2023-04-19T05:32:00.510Z,1.12
2023-04-19T05:33:00.544Z,1.67
2023-04-19T05:34:00.525Z,1.37
2023-04-19T05:35:00.525Z,1.63
2023-04-19T05:36:00.537Z,1.49
2023-04-19T05:37:00.610Z,1.72
2023-04-19T05:38:00.612Z,1.33
2023-04-19T05:39:00.697Z,1.90
2023-04-19T05:40:00.616Z,2.25
2023-04-19T05:41:01.063Z,3.10
2023-04-19T05:42:00.751Z,4.21
2023-04-19T05:43:00.797Z,4.43
2023-04-19T05:44:00.794Z,4.38
2023-04-19T05:45:00.958Z,4.89
2023-04-19T05:46:00.941Z,4.29
2023-04-19T05:47:01.006Z,4.35
2023-04-19T05:48:01.646Z,4.76
2023-04-19T05:49:01.749Z,4.92
2023-04-19T05:50:01.176Z,4.86
2023-04-19T05:51:01.208Z,4.16
2023-04-19T05:52:01.343Z,4.17
2023-04-19T05:53:02.191Z,4.18
2023-04-19T05:54:01.356Z,3.73
2023-04-19T05:55:01.384Z,3.32
2023-04-19T05:56:01.462Z,3.79
2023-04-19T05:57:01.497Z,4.27
2023-04-19T05:58:01.501Z,3.36
2023-04-19T05:59:01.577Z,4.26
2023-04-19T06:00:01.856Z,3.71
2023-04-19T06:01:01.713Z,4.45
2023-04-19T06:02:01.945Z,4.07
2023-04-19T06:03:01.890Z,4.29
2023-04-19T06:04:02.055Z,3.74
2023-04-19T06:05:05.136Z,3.39
2023-04-19T06:06:02.832Z,3.30
2023-04-19T06:07:03.068Z,3.74
2023-04-19T06:08:03.091Z,3.88
2023-04-19T06:09:02.116Z,3.89
2023-04-19T06:10:01.697Z,3.21
2023-04-19T06:12:01.761Z,3.63
2023-04-19T06:13:01.687Z,3.32
2023-04-19T06:14:01.687Z,3.21
2023-04-19T06:15:01.736Z,2.80
2023-04-19T06:16:01.777Z,3.77
2023-04-19T06:17:01.653Z,4.02
2023-04-19T06:18:01.656Z,3.76
2023-04-19T06:19:01.733Z,3.17
2023-04-19T06:20:01.813Z,2.91
2023-04-19T06:21:01.821Z,3.36
2023-04-19T06:22:01.949Z,2.92
2023-04-19T06:23:01.969Z,2.68
2023-04-19T06:24:03.174Z,3.43
2023-04-19T06:25:02.141Z,2.54
2023-04-19T06:26:02.172Z,3.12
2023-04-19T06:27:02.242Z,3.24
2023-04-19T06:28:02.304Z,3.47
2023-04-19T06:29:02.364Z,3.49
2023-04-19T06:30:02.516Z,3.47
2023-04-19T06:31:02.611Z,3.18
2023-04-19T06:32:02.656Z,2.99
2023-04-19T06:33:02.645Z,3.26
2023-04-19T06:34:02.628Z,2.98
2023-04-19T06:35:03.767Z,3.50
2023-04-19T06:36:02.756Z,4.61
2023-04-19T06:37:02.848Z,6.29
2023-04-19T06:38:02.763Z,5.14
2023-04-19T06:39:02.769Z,5.18
2023-04-19T06:40:03.143Z,6.23
2023-04-19T06:41:02.807Z,5.72
2023-04-19T06:42:02.913Z,4.43
2023-04-19T06:43:02.889Z,3.98
2023-04-19T06:44:02.901Z,4.25
2023-04-19T06:45:02.930Z,4.59
2023-04-19T06:46:02.898Z,4.64
2023-04-19T06:47:02.858Z,4.18
2023-04-19T06:48:03.412Z,4.45
2023-04-19T06:49:02.929Z,5.32
2023-04-19T06:50:02.835Z,5.90
2023-04-19T06:51:02.860Z,4.56
2023-04-19T06:52:02.827Z,5.05
2023-04-19T06:53:04.697Z,5.18
2023-04-19T06:55:22.346Z,5.05
2023-04-19T06:56:21.846Z,4.77
2023-04-19T06:57:21.771Z,5.24
2023-04-19T06:58:22.068Z,5.44
2023-04-19T06:59:21.869Z,5.73
2023-04-19T07:00:21.820Z,6.21
2023-04-19T07:01:21.817Z,6.19
2023-04-19T07:02:21.884Z,6.44
2023-04-19T07:03:21.846Z,6.34
2023-04-19T07:04:23.421Z,6.82
2023-04-19T07:05:21.740Z,7.39
2023-04-19T07:06:21.720Z,6.43
2023-04-19T07:07:21.734Z,6.06
2023-04-19T07:08:21.703Z,6.44
2023-04-19T07:09:21.727Z,6.58
2023-04-19T07:10:21.720Z,5.35
2023-04-19T07:11:22.556Z,5.46
2023-04-19T07:12:21.692Z,5.21
2023-04-19T07:13:21.873Z,5.24
2023-04-19T07:14:21.842Z,5.85
2023-04-19T07:15:21.679Z,5.58
2023-04-19T07:16:21.739Z,4.82
2023-04-19T07:17:21.714Z,5.68
2023-04-19T07:18:21.661Z,4.49
2023-04-19T07:19:21.674Z,5.96
2023-04-19T07:20:21.650Z,4.92
2023-04-19T07:21:22.425Z,6.00
2023-04-19T07:22:21.627Z,5.33
2023-04-19T07:23:21.913Z,6.20
2023-04-19T07:24:21.824Z,5.12
2023-04-19T07:25:21.810Z,5.43
2023-04-19T07:26:22.365Z,5.30
2023-04-19T07:27:21.924Z,5.80
2023-04-19T07:28:21.999Z,6.14
2023-04-19T07:29:22.038Z,6.59
2023-04-19T07:30:22.122Z,5.56
2023-04-19T07:31:22.900Z,5.98
2023-04-19T07:32:22.316Z,6.03
2023-04-19T07:33:22.301Z,6.33
2023-04-19T07:34:22.306Z,6.53
2023-04-19T07:35:22.844Z,5.62
2023-04-19T07:36:22.332Z,5.52
2023-04-19T07:37:22.748Z,5.78
2023-04-19T07:38:22.256Z,5.24
2023-04-19T07:39:22.313Z,5.37
2023-04-19T07:40:22.359Z,6.26
2023-04-19T07:41:22.437Z,5.58
2023-04-19T07:42:22.481Z,6.08
2023-04-19T07:43:22.681Z,5.17
2023-04-19T07:44:22.604Z,4.69
2023-04-19T07:45:22.683Z,5.56
2023-04-19T07:46:22.855Z,5.44
2023-04-19T07:47:22.810Z,4.49
2023-04-19T07:48:22.831Z,4.49
2023-04-19T07:49:22.824Z,5.14
2023-04-19T07:50:23.294Z,5.06
2023-04-19T07:51:22.948Z,4.81
2023-04-19T07:52:22.954Z,4.33
2023-04-19T07:53:23.036Z,4.57
2023-04-19T07:54:23.031Z,4.28
2023-04-19T07:55:23.174Z,4.48
2023-04-19T07:56:23.129Z,3.82
2023-04-19T07:57:23.170Z,4.13
2023-04-19T07:58:23.167Z,4.43
2023-04-19T07:59:23.232Z,4.69
2023-04-19T08:00:23.276Z,4.17
2023-04-19T08:01:23.308Z,4.76
2023-04-19T08:02:23.556Z,4.09
2023-04-19T08:03:23.549Z,4.31
2023-04-19T08:04:23.767Z,4.47
2023-04-19T08:05:23.435Z,4.89
2023-04-19T08:06:23.361Z,4.42
2023-04-19T08:07:23.386Z,3.77
2023-04-19T08:08:23.387Z,4.44
2023-04-19T08:09:23.425Z,5.46
2023-04-19T08:10:23.438Z,4.76
2023-04-19T08:11:23.457Z,4.32
2023-04-19T08:12:35.090Z,3.96
2023-04-19T08:13:24.590Z,5.05
2023-04-19T08:14:34.883Z,4.42
2023-04-19T08:16:07.824Z,4.83
2023-04-19T08:17:27.443Z,4.01
2023-04-19T08:18:23.602Z,3.87
2023-04-19T08:19:23.561Z,3.74
2023-04-19T08:20:23.573Z,4.80
2023-04-19T08:21:28.588Z,4.10
2023-04-19T08:22:24.589Z,5.05
2023-04-19T08:23:27.728Z,4.23
2023-04-19T08:24:24.512Z,3.93
2023-04-19T08:25:23.555Z,4.22
2023-04-19T08:26:23.904Z,4.83
2023-04-19T08:27:23.506Z,4.16
2023-04-19T08:28:23.589Z,5.44
2023-04-19T08:29:23.563Z,5.94
2023-04-19T08:30:23.524Z,5.36
2023-04-19T08:31:23.663Z,5.26
2023-04-19T08:32:23.555Z,5.94
2023-04-19T08:33:23.463Z,5.79
2023-04-19T08:34:23.458Z,5.15
2023-04-19T08:35:23.448Z,6.41
2023-04-19T08:36:34.808Z,6.65
2023-04-19T08:37:24.456Z,6.51
2023-04-19T08:38:23.438Z,6.38
2023-04-19T08:39:32.256Z,6.58
2023-04-19T08:40:24.643Z,7.49
2023-04-19T08:41:23.412Z,6.50
2023-04-19T08:42:35.562Z,6.17
2023-04-19T08:43:24.447Z,4.90
2023-04-19T08:44:35.413Z,5.31
2023-04-19T08:45:28.095Z,4.59
2023-04-19T08:46:24.591Z,4.96
2023-04-19T08:47:31.210Z,4.57
2023-04-19T08:48:24.902Z,4.73
2023-04-19T08:49:23.515Z,4.89
2023-04-19T08:50:32.519Z,4.75
2023-04-19T08:51:24.486Z,4.78
2023-04-19T08:52:23.557Z,4.48
2023-04-19T08:53:25.993Z,5.09
2023-04-19T08:54:23.403Z,4.49
2023-04-19T08:55:23.400Z,4.34
2023-04-19T08:56:34.794Z,3.72
2023-04-19T08:57:24.388Z,4.30
2023-04-19T08:58:33.305Z,4.29
2023-04-19T08:59:24.597Z,4.17
2023-04-19T09:00:23.397Z,3.92
2023-04-19T09:01:34.771Z,4.93
2023-04-19T09:02:24.611Z,3.74
2023-04-19T09:03:23.611Z,3.62
2023-04-19T09:04:36.426Z,3.60
2023-04-19T09:05:24.533Z,4.26
2023-04-19T09:06:23.544Z,4.00
2023-04-19T09:07:23.330Z,4.36
2023-04-19T09:08:23.445Z,3.47
2023-04-19T09:10:23.277Z,3.56
2023-04-19T09:11:23.321Z,3.61
2023-04-19T09:12:23.304Z,3.80
2023-04-19T09:13:23.309Z,3.46
2023-04-19T09:14:23.277Z,4.08
2023-04-19T09:15:23.277Z,3.93
2023-04-19T09:16:23.355Z,3.71
2023-04-19T09:17:23.267Z,2.81
2023-04-19T09:18:23.240Z,3.71
2023-04-19T09:19:25.166Z,3.03
2023-04-19T09:20:23.222Z,3.58
2023-04-19T09:21:23.236Z,3.27
2023-04-19T09:22:23.540Z,3.43
2023-04-19T09:23:23.258Z,3.04
2023-04-19T09:24:23.658Z,2.98
2023-04-19T09:25:41.938Z,2.97
2023-04-19T09:26:24.222Z,2.75
2023-04-19T09:27:23.202Z,2.71
2023-04-19T09:28:23.214Z,2.47
2023-04-19T09:29:23.203Z,3.41
2023-04-19T09:30:32.315Z,4.08
2023-04-19T09:32:24.347Z,2.95
2023-04-19T09:33:23.511Z,2.75
2023-04-19T09:34:23.858Z,3.35
2023-04-19T09:35:23.211Z,4.04
2023-04-19T09:36:23.146Z,4.95
2023-04-19T09:37:50.914Z,4.99
2023-04-19T09:38:24.397Z,4.80
2023-04-19T09:39:24.059Z,5.49
2023-04-19T09:40:25.489Z,4.82
2023-04-19T09:41:23.087Z,4.46
2023-04-19T09:42:36.342Z,4.39
2023-04-19T09:43:53.256Z,3.23
2023-04-19T09:46:23.132Z,3.45
2023-04-19T09:47:23.254Z,4.20
2023-04-19T09:48:23.098Z,3.86
2023-04-19T09:49:33.489Z,3.41
2023-04-19T09:50:27.269Z,3.87
2023-04-19T09:51:23.062Z,3.96
2023-04-19T09:52:23.077Z,3.66
2023-04-19T09:53:23.136Z,3.32
2023-04-19T09:54:23.029Z,3.35
2023-04-19T09:55:27.850Z,3.45
2023-04-19T09:56:24.062Z,3.01
2023-04-19T09:57:22.993Z,3.24
2023-04-19T09:58:23.019Z,3.36
2023-04-19T09:59:23.208Z,3.55
2023-04-19T10:00:23.044Z,7.06
2023-04-19T10:01:23.171Z,3.33
2023-04-19T10:02:23.330Z,3.05
2023-04-19T10:03:23.080Z,3.00
2023-04-19T10:04:37.721Z,2.93
2023-04-19T10:05:24.380Z,3.83
2023-04-19T10:07:30.198Z,3.31
2023-04-19T10:08:24.054Z,2.87
2023-04-19T10:09:23.084Z,3.11
2023-04-19T10:10:32.976Z,3.12
2023-04-19T10:11:24.121Z,3.68
2023-04-19T10:12:46.147Z,3.23
2023-04-19T10:13:26.457Z,3.44
2023-04-19T10:14:23.115Z,3.33
2023-04-19T10:15:23.012Z,3.07
2023-04-19T10:16:23.473Z,3.15
2023-04-19T10:17:23.502Z,3.29
2023-04-19T10:18:24.094Z,3.03
2023-04-19T10:19:23.040Z,2.91
2023-04-19T10:20:23.025Z,3.04
2023-04-19T10:21:23.419Z,2.93
2023-04-19T10:22:22.999Z,3.15
2023-04-19T10:23:23.045Z,3.23
2023-04-19T10:24:22.958Z,2.83
2023-04-19T10:25:22.987Z,2.67
2023-04-19T10:26:23.417Z,3.41
2023-04-19T10:27:23.908Z,3.40
2023-04-19T10:28:23.005Z,3.44
2023-04-19T10:29:22.909Z,3.08
2023-04-19T10:30:22.980Z,2.58
2023-04-19T10:31:23.031Z,2.67
2023-04-19T10:32:22.967Z,3.08
2023-04-19T10:33:22.905Z,3.12
2023-04-19T10:34:22.926Z,3.32
2023-04-19T10:35:22.898Z,3.56
2023-04-19T10:36:22.958Z,3.61
2023-04-19T10:37:22.916Z,2.97
2023-04-19T10:38:22.857Z,2.83
2023-04-19T10:39:22.863Z,3.22
2023-04-19T10:40:22.891Z,3.00
2023-04-19T10:41:22.971Z,2.96
2023-04-19T10:42:22.854Z,3.52
2023-04-19T10:43:22.894Z,3.04
2023-04-19T10:44:22.921Z,3.63
2023-04-19T10:45:22.873Z,3.54
2023-04-19T10:46:23.173Z,3.48
2023-04-19T10:47:23.035Z,2.70
2023-04-19T10:48:22.925Z,3.18
2023-04-19T10:49:22.973Z,3.08
2023-04-19T10:50:23.053Z,3.22
2023-04-19T10:51:23.034Z,3.12
2023-04-19T10:52:23.038Z,2.92
2023-04-19T10:53:23.061Z,3.30
2023-04-19T10:54:23.957Z,2.49
2023-04-19T10:55:23.083Z,3.11
2023-04-19T10:56:23.095Z,2.86
2023-04-19T10:57:23.481Z,3.17
2023-04-19T10:58:23.127Z,2.89
2023-04-19T10:59:23.206Z,3.48
2023-04-19T11:00:23.182Z,2.82
2023-04-19T11:01:23.270Z,2.84
2023-04-19T11:02:23.523Z,2.70
2023-04-19T11:03:23.674Z,3.07
2023-04-19T11:04:23.377Z,2.95
2023-04-19T11:05:24.061Z,3.00
2023-04-19T11:06:23.321Z,3.19
2023-04-19T11:07:23.475Z,2.48
2023-04-19T11:08:23.441Z,2.82
2023-04-19T11:09:23.451Z,2.71
2023-04-19T11:10:23.452Z,2.84
2023-04-19T11:11:23.471Z,3.40
2023-04-19T11:12:23.628Z,2.69
2023-04-19T11:13:23.475Z,2.58
2023-04-19T11:14:23.579Z,2.93
2023-04-19T11:15:23.536Z,2.29
2023-04-19T11:16:31.236Z,3.09
2023-04-19T11:17:24.557Z,2.91
2023-04-19T11:18:23.515Z,3.03
2023-04-19T11:19:23.518Z,2.58
2023-04-19T11:20:23.516Z,3.27
2023-04-19T11:21:24.446Z,2.78
2023-04-19T11:22:24.013Z,2.69
2023-04-19T11:23:23.472Z,3.24
2023-04-19T11:24:24.492Z,2.79
2023-04-19T11:25:23.483Z,3.30
2023-04-19T11:26:23.466Z,2.97
2023-04-19T11:27:23.473Z,2.65
2023-04-19T11:28:23.431Z,3.28
2023-04-19T11:29:23.466Z,3.49
2023-04-19T11:30:23.494Z,3.23
2023-04-19T11:31:23.589Z,3.02
2023-04-19T11:32:23.501Z,2.85
2023-04-19T11:33:23.518Z,3.08
2023-04-19T11:34:23.513Z,2.34
2023-04-19T11:35:23.442Z,2.65
2023-04-19T11:36:23.490Z,2.48
2023-04-19T11:37:23.455Z,2.66
2023-04-19T11:38:23.565Z,2.62
2023-04-19T11:39:23.539Z,3.10
2023-04-19T11:40:23.620Z,2.60
2023-04-19T11:41:23.655Z,2.54
2023-04-19T11:42:23.661Z,3.41
2023-04-19T11:43:23.666Z,2.54
2023-04-19T11:44:23.704Z,2.88
2023-04-19T11:45:30.243Z,2.90
2023-04-19T11:46:24.753Z,2.76
2023-04-19T11:47:23.767Z,2.44
2023-04-19T11:48:23.696Z,4.77
2023-04-19T11:49:23.715Z,2.23
2023-04-19T11:50:24.094Z,2.71
2023-04-19T11:51:23.670Z,2.76
2023-04-19T11:52:23.707Z,2.83
2023-04-19T11:53:23.721Z,2.28
2023-04-19T11:54:23.692Z,2.52
2023-04-19T11:55:23.693Z,3.08
2023-04-19T11:56:23.655Z,3.13
2023-04-19T11:57:23.727Z,2.89
2023-04-19T11:58:23.683Z,2.85
2023-04-19T11:59:23.813Z,2.82
2023-04-19T12:00:23.782Z,2.33
2023-04-19T12:01:23.800Z,2.51
2023-04-19T12:02:24.172Z,2.35
2023-04-19T12:03:26.191Z,3.04
2023-04-19T12:04:24.029Z,2.37
2023-04-19T12:05:24.200Z,2.92
2023-04-19T12:06:23.876Z,2.45
2023-04-19T12:07:23.912Z,2.52
2023-04-19T12:08:23.856Z,3.02
2023-04-19T12:09:24.285Z,2.55
2023-04-19T12:10:23.841Z,2.16
2023-04-19T12:11:23.811Z,2.56
2023-04-19T12:12:23.778Z,2.11
2023-04-19T12:13:23.864Z,2.52
2023-04-19T12:14:23.784Z,2.23
2023-04-19T12:15:25.765Z,2.39
2023-04-19T12:16:23.793Z,2.46
2023-04-19T12:17:23.929Z,1.90
2023-04-19T12:18:23.889Z,2.89
2023-04-19T12:19:23.786Z,2.48
2023-04-19T12:20:23.827Z,2.61
2023-04-19T12:21:23.778Z,2.13
2023-04-19T12:22:23.725Z,2.59
2023-04-19T12:23:23.749Z,2.60
2023-04-19T12:24:23.844Z,2.57
2023-04-19T12:25:23.734Z,1.94
2023-04-19T12:26:23.741Z,1.97
2023-04-19T12:27:23.665Z,2.01
2023-04-19T12:28:23.676Z,2.59
2023-04-19T12:29:23.756Z,3.34
2023-04-19T12:30:23.804Z,1.91
2023-04-19T12:31:23.920Z,2.71
2023-04-19T12:32:23.909Z,2.48
2023-04-19T12:33:24.529Z,2.81
2023-04-19T12:34:23.696Z,1.88
2023-04-19T12:35:23.688Z,1.96
2023-04-19T12:36:23.638Z,2.07
2023-04-19T12:37:23.732Z,2.39
2023-04-19T12:38:23.731Z,2.57
2023-04-19T12:39:23.651Z,2.24
2023-04-19T12:40:23.669Z,1.85
2023-04-19T12:41:23.762Z,2.99
2023-04-19T12:42:23.601Z,2.56
2023-04-19T12:43:23.637Z,2.48
2023-04-19T12:44:23.670Z,2.34
2023-04-19T12:45:23.639Z,2.33
2023-04-19T12:46:23.729Z,2.63
2023-04-19T12:47:23.686Z,2.09
2023-04-19T12:48:23.580Z,3.02
2023-04-19T12:49:23.638Z,2.22
2023-04-19T12:50:23.713Z,2.36
2023-04-19T12:51:23.636Z,2.28
2023-04-19T12:52:23.636Z,1.97
2023-04-19T12:53:23.705Z,2.30
2023-04-19T12:54:23.716Z,2.18
2023-04-19T12:55:23.778Z,2.04
2023-04-19T12:56:23.788Z,2.34
2023-04-19T12:57:23.832Z,2.02
2023-04-19T12:58:23.993Z,2.28
2023-04-19T12:59:23.969Z,2.20
2023-04-19T13:00:23.967Z,2.09
2023-04-19T13:01:24.040Z,2.32
2023-04-19T13:02:24.107Z,1.61
2023-04-19T13:03:24.625Z,2.43
2023-04-19T13:04:24.637Z,2.36
2023-04-19T13:05:24.138Z,2.01
2023-04-19T13:06:24.146Z,2.19
2023-04-19T13:07:24.187Z,2.29
2023-04-19T13:08:37.133Z,2.54
2023-04-19T13:09:25.251Z,2.04
2023-04-19T13:10:24.230Z,1.77
2023-04-19T13:11:24.276Z,2.24
2023-04-19T13:12:24.290Z,2.64
2023-04-19T13:13:24.171Z,2.09
2023-04-19T13:14:24.198Z,2.60
2023-04-19T13:15:24.211Z,2.45
2023-04-19T13:16:24.241Z,2.26
2023-04-19T13:17:24.233Z,1.77
2023-04-19T13:18:24.216Z,2.03
2023-04-19T13:19:24.169Z,2.44
2023-04-19T13:20:24.195Z,2.50
2023-04-19T13:21:24.278Z,2.07
2023-04-19T13:22:24.266Z,1.94
2023-04-19T13:23:24.442Z,1.93
2023-04-19T13:24:24.323Z,1.62
2023-04-19T13:25:24.451Z,2.14
2023-04-19T13:26:24.469Z,1.91
2023-04-19T13:27:24.615Z,1.71